createdAt,value
2022-08-17T00:07:45.408Z,1013.5184558322575
2022-08-17T00:16:13.994Z,1013.56379451032
2022-08-17T00:26:03.037Z,1013.5163988581229
2022-08-17T00:34:21.422Z,1013.5347408169515
2022-08-17T00:41:56.778Z,1013.5414411616775
2022-08-17T00:49:49.674Z,1013.5108910308581
2022-08-17T00:57:32.622Z,1013.5956067658864
2022-08-17T01:05:30.474Z,1013.569433082363
2022-08-17T01:14:02.097Z,1013.6172415327741
2022-08-17T01:21:37.010Z,1013.7230476872882
2022-08-17T01:30:03.668Z,1013.6254355334577
2022-08-17T01:38:18.471Z,1013.6064457220152
2022-08-17T01:46:02.584Z,1013.5762799105046
2022-08-17T01:53:40.345Z,1013.5962624500968
2022-08-17T02:01:35.237Z,1013.5790829350573
2022-08-17T02:10:46.759Z,1013.5625617748581
2022-08-17T02:18:25.189Z,1013.4457473076785
2022-08-17T02:26:07.386Z,1013.3402344251685
2022-08-17T02:34:50.432Z,1013.3346331821518
2022-08-17T02:42:48.909Z,1013.2430303639361
2022-08-17T02:50:44.523Z,1013.2342039353539
2022-08-17T02:59:22.102Z,1013.1517327397477
2022-08-17T03:06:56.622Z,1013.2161798097305
2022-08-17T03:14:29.159Z,1013.2984120415712
2022-08-17T03:22:35.751Z,1013.1948713242638
2022-08-17T03:30:32.340Z,1013.173558609
2022-08-17T03:38:05.994Z,1013.1532697626873
2022-08-17T03:46:25.544Z,1013.1440078121195
2022-08-17T03:54:03.956Z,1013.1882271909703
2022-08-17T04:01:38.413Z,1013.3362127766641
2022-08-17T04:09:12.778Z,1013.3365521130789
2022-08-17T04:17:06.272Z,1013.2337258843513
2022-08-17T04:24:51.603Z,1013.318105692771
2022-08-17T04:33:29.732Z,1013.2835602973616
2022-08-17T04:40:59.261Z,1013.3901375799691
2022-08-17T04:49:00.334Z,1013.4272751611132
2022-08-17T04:56:49.165Z,1013.5630610696887
2022-08-17T05:04:57.203Z,1013.5765902438037
2022-08-17T05:12:37.565Z,1013.6757520133796
2022-08-17T05:20:01.409Z,1013.7212553042222
2022-08-17T05:28:19.949Z,1013.6332721403653
2022-08-17T05:36:08.398Z,1013.6710267484383
2022-08-17T05:43:40.642Z,1013.7164873388908
2022-08-17T05:51:37.066Z,1013.7113816872203
2022-08-17T05:59:27.025Z,1013.7595841654157
2022-08-17T06:07:02.204Z,1013.775660247496
2022-08-17T06:14:38.508Z,1013.7762792504099
2022-08-17T06:22:23.095Z,1013.7665192485342
2022-08-17T06:30:05.934Z,1013.7726978245897
2022-08-17T06:38:00.513Z,1013.7688802971197
2022-08-17T06:46:02.902Z,1013.8169517307018
2022-08-17T06:53:58.167Z,1013.8003521252107
2022-08-17T07:02:17.051Z,1013.8488190106729
2022-08-17T07:10:08.314Z,1013.8861257119715
2022-08-17T07:18:11.865Z,1013.7457007103025
2022-08-17T07:25:55.365Z,1013.8506725004706
2022-08-17T07:33:42.548Z,1013.7212570515578
2022-08-17T07:41:24.298Z,1013.7657216644811
2022-08-17T07:49:09.422Z,1013.7850805996169
2022-08-17T07:57:46.584Z,1013.776077749887
2022-08-17T08:06:33.828Z,1013.8388145478947
2022-08-17T08:14:17.254Z,1013.7753218174653
2022-08-17T08:23:09.067Z,1013.8338420260585
2022-08-17T08:30:46.112Z,1013.9185197082052
2022-08-17T08:40:06.997Z,1013.9123461605586
2022-08-17T08:47:57.086Z,1013.9351279578632
2022-08-17T08:56:59.139Z,1013.9645698167203
2022-08-17T09:05:59.674Z,1013.9889735235225
2022-08-17T09:13:40.897Z,1013.9690149584317
2022-08-17T09:22:01.567Z,1013.9811136961882
2022-08-17T09:29:30.146Z,1014.0425292989052
2022-08-17T09:37:11.789Z,1014.0089442528592
2022-08-17T09:44:48.705Z,1013.994603725383
2022-08-17T09:52:24.866Z,1013.933025472341
2022-08-17T10:00:58.244Z,1013.7997557572363
2022-08-17T10:08:45.987Z,1013.7561370545169
2022-08-17T10:17:06.288Z,1013.7192842530542
2022-08-17T10:25:54.959Z,1013.7077322357079
2022-08-17T10:34:18.432Z,1013.675237458986
2022-08-17T10:45:51.064Z,1013.6129643173306
2022-08-17T11:05:28.677Z,1013.6254620038367
2022-08-17T11:13:13.823Z,1013.5864281369837
2022-08-17T11:20:50.300Z,1013.5035997354247
2022-08-17T11:28:34.420Z,1013.4897509961488
2022-08-17T11:36:19.060Z,1013.49845001082
2022-08-17T11:44:04.430Z,1013.5011784979912
2022-08-17T11:52:28.190Z,1013.4356856654725
2022-08-17T12:00:48.186Z,1013.4427531540048
2022-08-17T12:08:17.684Z,1013.4039932620378
2022-08-17T12:16:20.449Z,1013.3396554998291
2022-08-17T12:24:08.441Z,1013.3398558324694
2022-08-17T12:32:32.255Z,1013.3565288090056
2022-08-17T12:40:13.238Z,1013.3530374611737
2022-08-17T12:47:44.782Z,1013.357419456946
2022-08-17T12:55:57.807Z,1013.1920485667627
2022-08-17T13:03:42.342Z,1013.0804510093232
2022-08-17T13:11:03.562Z,1012.9583143996404
2022-08-17T13:18:45.673Z,1013.0386691734525
2022-08-17T13:26:53.373Z,1012.8813456491014
2022-08-17T13:35:39.653Z,1012.8880381628479
2022-08-17T13:43:37.937Z,1012.8982787757933
2022-08-17T13:51:24.361Z,1012.8315780199747
2022-08-17T13:59:36.059Z,1012.7999719178587
2022-08-17T14:08:06.466Z,1012.7647047939173
2022-08-17T14:15:53.879Z,1012.7101739086794
2022-08-17T14:23:30.550Z,1012.6827372557796
2022-08-17T14:31:37.483Z,1012.574338482249
2022-08-17T14:39:06.220Z,1012.581774402364
2022-08-17T14:46:51.277Z,1012.5610904067303
2022-08-17T14:54:32.727Z,1012.4715933191655
2022-08-17T15:02:51.204Z,1012.3803204300474
2022-08-17T15:10:29.512Z,1012.3260747552308
2022-08-17T15:18:12.388Z,1012.305178487059
2022-08-17T15:25:51.873Z,1012.2221872595729
2022-08-17T15:33:46.057Z,1012.2392223610369
2022-08-17T15:41:24.380Z,1012.2782566883249
2022-08-17T15:48:55.484Z,1012.2057678413327
2022-08-17T15:56:47.079Z,1012.161850017494
2022-08-17T16:06:47.049Z,1012.1348306895097
2022-08-17T16:14:39.727Z,1012.0401591758512
2022-08-17T16:22:55.030Z,1012.0721831452139
2022-08-17T16:30:39.003Z,1012.080518619928
2022-08-17T16:38:23.155Z,1011.9876658386186
2022-08-17T16:45:59.365Z,1011.869398195165
2022-08-17T16:53:57.918Z,1011.8574239723032
2022-08-17T17:01:52.850Z,1011.9481418086226
2022-08-17T17:09:29.429Z,1012.3473865743144
2022-08-17T17:17:45.582Z,1012.6673439444317
2022-08-17T17:25:23.743Z,1012.6215211693951
2022-08-17T17:33:25.279Z,1012.4071949567617
2022-08-17T17:41:00.515Z,1012.5842879090773
2022-08-17T17:49:25.969Z,1012.5753216116457
2022-08-17T17:57:51.412Z,1012.6862739302987
2022-08-17T18:05:34.153Z,1012.5259367729212
2022-08-17T18:13:20.720Z,1012.6233359444664
2022-08-17T18:21:10.522Z,1012.7545865637571
2022-08-17T18:28:49.234Z,1012.7858920169347
2022-08-17T18:36:46.432Z,1012.9212236535042
2022-08-17T18:44:22.898Z,1012.8864463679196
2022-08-17T18:52:02.615Z,1012.8639870400601
2022-08-17T18:59:50.895Z,1012.9559510055982
2022-08-17T19:08:03.267Z,1012.9843209269401
2022-08-17T19:15:40.724Z,1013.08016476954
2022-08-17T19:23:15.600Z,1013.020770993303
2022-08-17T19:31:51.039Z,1013.0893217898472
2022-08-17T19:39:32.047Z,1013.0163289354024
2022-08-17T19:47:36.594Z,1012.9597406748545
2022-08-17T19:55:34.512Z,1012.9305943583187
2022-08-17T20:03:16.091Z,1012.794586400393
2022-08-17T20:11:30.270Z,1012.6660014943693
2022-08-17T20:19:42.393Z,1012.703851136827
2022-08-17T20:27:41.580Z,1012.6983307358673
2022-08-17T20:35:28.096Z,1012.9229731707834
2022-08-17T20:43:02.368Z,1012.9933212553707
2022-08-17T20:51:13.089Z,1013.1448046810921
2022-08-17T20:58:54.508Z,1013.0575773106043
2022-08-17T21:06:44.380Z,1013.2148037956022
2022-08-17T21:14:53.074Z,1013.2952796537221
2022-08-17T21:22:32.523Z,1013.4766889681282
2022-08-17T21:30:40.980Z,1013.360666406023
2022-08-17T21:38:40.057Z,1013.5715361743662
2022-08-17T21:46:25.183Z,1013.6870842596783
2022-08-17T21:54:00.577Z,1013.6300274650573
2022-08-17T22:02:05.411Z,1013.6427434591626
2022-08-17T22:09:50.455Z,1013.6916988899166
2022-08-17T22:17:51.708Z,1013.7038976350436
2022-08-17T22:25:28.434Z,1013.6508341811619
2022-08-17T22:32:53.777Z,1013.6981003595497
2022-08-17T22:40:35.900Z,1013.5118575345351
2022-08-17T22:48:09.056Z,1013.5092130700405
2022-08-17T22:55:54.897Z,1013.5297991425188
2022-08-17T23:03:42.663Z,1013.5016612617218
2022-08-17T23:15:52.746Z,1013.5635916519386
2022-08-17T23:23:46.396Z,1013.3199397417574
2022-08-17T23:31:13.116Z,1013.3973711768267
2022-08-17T23:38:43.991Z,1013.4893647588133
2022-08-17T23:46:26.119Z,1013.4902833558763
2022-08-17T23:54:04.386Z,1013.492720247816
